sensor_id;sensor_type;location;lat;lon;timestamp;temperature;humidity
31038;DHT22;17702;47.590;7.666;2023-12-07T00:00:33;6.40;99.90
31038;DHT22;17702;47.590;7.666;2023-12-07T00:02:58;6.40;99.90
31038;DHT22;17702;47.590;7.666;2023-12-07T00:05:27;6.30;99.90
31038;DHT22;17702;47.590;7.666;2023-12-07T00:07:52;6.40;99.90
31038;DHT22;17702;47.590;7.666;2023-12-07T00:10:18;6.40;99.90
31038;DHT22;17702;47.590;7.666;2023-12-07T00:12:43;6.50;99.90
31038;DHT22;17702;47.590;7.666;2023-12-07T00:15:09;6.60;99.90
31038;DHT22;17702;47.590;7.666;2023-12-07T00:17:35;6.60;99.90
31038;DHT22;17702;47.590;7.666;2023-12-07T00:20:00;6.60;99.90
31038;DHT22;17702;47.590;7.666;2023-12-07T00:22:26;6.50;99.90
31038;DHT22;17702;47.590;7.666;2023-12-07T00:24:53;6.50;99.90
31038;DHT22;17702;47.590;7.666;2023-12-07T00:27:19;6.40;99.90
31038;DHT22;17702;47.590;7.666;2023-12-07T00:29:45;6.40;99.90
31038;DHT22;17702;47.590;7.666;2023-12-07T00:32:10;6.30;99.90
31038;DHT22;17702;47.590;7.666;2023-12-07T00:34:36;6.30;99.90
31038;DHT22;17702;47.590;7.666;2023-12-07T00:37:01;6.20;99.90
31038;DHT22;17702;47.590;7.666;2023-12-07T00:39:28;6.20;99.90
31038;DHT22;17702;47.590;7.666;2023-12-07T00:41:54;6.10;99.90
31038;DHT22;17702;47.590;7.666;2023-12-07T00:44:19;6.00;99.90
31038;DHT22;17702;47.590;7.666;2023-12-07T00:46:45;5.90;99.90
31038;DHT22;17702;47.590;7.666;2023-12-07T00:49:11;5.90;99.90
31038;DHT22;17702;47.590;7.666;2023-12-07T00:51:37;5.80;99.90
31038;DHT22;17702;47.590;7.666;2023-12-07T00:54:03;5.80;99.90
31038;DHT22;17702;47.590;7.666;2023-12-07T00:56:28;5.70;99.90
31038;DHT22;17702;47.590;7.666;2023-12-07T00:58:54;5.60;99.90
31038;DHT22;17702;47.590;7.666;2023-12-07T01:01:19;5.60;99.90
31038;DHT22;17702;47.590;7.666;2023-12-07T01:03:45;5.60;99.90
31038;DHT22;17702;47.590;7.666;2023-12-07T01:06:11;5.60;99.90
31038;DHT22;17702;47.590;7.666;2023-12-07T01:08:39;5.60;99.90
31038;DHT22;17702;47.590;7.666;2023-12-07T01:11:08;5.60;99.90
31038;DHT22;17702;47.590;7.666;2023-12-07T01:13:34;5.60;99.90
31038;DHT22;17702;47.590;7.666;2023-12-07T01:16:01;5.60;99.90
31038;DHT22;17702;47.590;7.666;2023-12-07T01:18:27;5.50;99.90
31038;DHT22;17702;47.590;7.666;2023-12-07T01:20:52;5.50;99.90
31038;DHT22;17702;47.590;7.666;2023-12-07T01:23:18;5.50;99.90
31038;DHT22;17702;47.590;7.666;2023-12-07T01:25:43;5.50;99.90
31038;DHT22;17702;47.590;7.666;2023-12-07T01:28:09;5.60;99.90
31038;DHT22;17702;47.590;7.666;2023-12-07T01:30:34;5.60;99.90
31038;DHT22;17702;47.590;7.666;2023-12-07T01:33:01;5.70;99.90
31038;DHT22;17702;47.590;7.666;2023-12-07T01:35:27;5.80;99.90
31038;DHT22;17702;47.590;7.666;2023-12-07T01:37:54;5.90;99.90
31038;DHT22;17702;47.590;7.666;2023-12-07T01:40:19;6.00;99.90
31038;DHT22;17702;47.590;7.666;2023-12-07T01:42:52;6.00;99.90
31038;DHT22;17702;47.590;7.666;2023-12-07T01:45:18;5.90;99.90
31038;DHT22;17702;47.590;7.666;2023-12-07T01:47:45;5.80;99.90
31038;DHT22;17702;47.590;7.666;2023-12-07T01:50:12;5.80;99.90
31038;DHT22;17702;47.590;7.666;2023-12-07T01:52:44;5.90;99.90
31038;DHT22;17702;47.590;7.666;2023-12-07T01:55:11;5.90;99.90
31038;DHT22;17702;47.590;7.666;2023-12-07T01:57:37;5.90;99.90
31038;DHT22;17702;47.590;7.666;2023-12-07T02:00:03;5.90;99.90
31038;DHT22;17702;47.590;7.666;2023-12-07T02:02:32;5.90;99.90
31038;DHT22;17702;47.590;7.666;2023-12-07T02:04:58;5.80;99.90
31038;DHT22;17702;47.590;7.666;2023-12-07T02:07:24;5.80;99.90
31038;DHT22;17702;47.590;7.666;2023-12-07T02:09:49;5.80;99.90
31038;DHT22;17702;47.590;7.666;2023-12-07T02:12:15;5.70;99.90
31038;DHT22;17702;47.590;7.666;2023-12-07T02:14:41;5.70;99.90
31038;DHT22;17702;47.590;7.666;2023-12-07T02:17:14;5.70;99.90
31038;DHT22;17702;47.590;7.666;2023-12-07T02:22:18;5.60;99.90
31038;DHT22;17702;47.590;7.666;2023-12-07T02:25:06;5.40;99.90
31038;DHT22;17702;47.590;7.666;2023-12-07T02:27:40;5.30;99.90
31038;DHT22;17702;47.590;7.666;2023-12-07T02:30:10;5.20;99.90
31038;DHT22;17702;47.590;7.666;2023-12-07T02:32:37;5.10;99.90
31038;DHT22;17702;47.590;7.666;2023-12-07T02:35:03;5.00;99.90
31038;DHT22;17702;47.590;7.666;2023-12-07T02:37:37;5.00;99.90
31038;DHT22;17702;47.590;7.666;2023-12-07T02:40:07;4.90;99.90
31038;DHT22;17702;47.590;7.666;2023-12-07T02:42:37;4.80;99.90
31038;DHT22;17702;47.590;7.666;2023-12-07T02:45:04;4.80;99.90
31038;DHT22;17702;47.590;7.666;2023-12-07T02:47:29;4.80;99.90
31038;DHT22;17702;47.590;7.666;2023-12-07T02:49:55;4.80;99.90
31038;DHT22;17702;47.590;7.666;2023-12-07T02:52:21;4.90;99.90
31038;DHT22;17702;47.590;7.666;2023-12-07T02:54:46;4.90;99.90
31038;DHT22;17702;47.590;7.666;2023-12-07T02:57:13;4.90;99.90
31038;DHT22;17702;47.590;7.666;2023-12-07T02:59:40;4.90;99.90
31038;DHT22;17702;47.590;7.666;2023-12-07T03:02:06;4.90;99.90
31038;DHT22;17702;47.590;7.666;2023-12-07T03:04:31;4.90;99.90
31038;DHT22;17702;47.590;7.666;2023-12-07T03:06:57;4.80;99.90
31038;DHT22;17702;47.590;7.666;2023-12-07T03:09:23;4.80;99.90
31038;DHT22;17702;47.590;7.666;2023-12-07T03:11:49;4.90;99.90
31038;DHT22;17702;47.590;7.666;2023-12-07T03:14:14;4.90;99.90
31038;DHT22;17702;47.590;7.666;2023-12-07T03:16:40;4.90;99.90
31038;DHT22;17702;47.590;7.666;2023-12-07T03:19:05;4.90;99.90
31038;DHT22;17702;47.590;7.666;2023-12-07T03:21:31;5.00;99.90
31038;DHT22;17702;47.590;7.666;2023-12-07T03:23:57;5.00;99.90
31038;DHT22;17702;47.590;7.666;2023-12-07T03:26:22;5.00;99.90
31038;DHT22;17702;47.590;7.666;2023-12-07T03:28:48;5.10;99.90
31038;DHT22;17702;47.590;7.666;2023-12-07T03:31:13;5.10;99.90
31038;DHT22;17702;47.590;7.666;2023-12-07T03:36:11;5.10;99.90
31038;DHT22;17702;47.590;7.666;2023-12-07T03:38:37;5.20;99.90
31038;DHT22;17702;47.590;7.666;2023-12-07T03:41:03;5.20;99.90
31038;DHT22;17702;47.590;7.666;2023-12-07T03:43:29;5.20;99.90
31038;DHT22;17702;47.590;7.666;2023-12-07T03:45:54;5.20;99.90
31038;DHT22;17702;47.590;7.666;2023-12-07T03:48:20;5.20;99.90
31038;DHT22;17702;47.590;7.666;2023-12-07T03:50:46;5.20;99.90
31038;DHT22;17702;47.590;7.666;2023-12-07T03:53:11;5.30;99.90
31038;DHT22;17702;47.590;7.666;2023-12-07T03:55:38;5.30;99.90
31038;DHT22;17702;47.590;7.666;2023-12-07T03:58:04;5.30;99.90
31038;DHT22;17702;47.590;7.666;2023-12-07T04:00:31;5.30;99.90
31038;DHT22;17702;47.590;7.666;2023-12-07T04:02:57;5.30;99.90
31038;DHT22;17702;47.590;7.666;2023-12-07T04:05:23;5.30;99.90
31038;DHT22;17702;47.590;7.666;2023-12-07T04:07:48;5.20;99.90
31038;DHT22;17702;47.590;7.666;2023-12-07T04:10:14;5.20;99.90
31038;DHT22;17702;47.590;7.666;2023-12-07T04:12:40;5.10;99.90
31038;DHT22;17702;47.590;7.666;2023-12-07T04:15:06;5.20;99.90
31038;DHT22;17702;47.590;7.666;2023-12-07T04:17:31;5.20;99.90
31038;DHT22;17702;47.590;7.666;2023-12-07T04:19:57;5.20;99.90
31038;DHT22;17702;47.590;7.666;2023-12-07T04:22:23;5.20;99.90
31038;DHT22;17702;47.590;7.666;2023-12-07T04:24:48;5.30;99.90
31038;DHT22;17702;47.590;7.666;2023-12-07T04:27:15;5.30;99.90
31038;DHT22;17702;47.590;7.666;2023-12-07T04:29:40;5.30;99.90
31038;DHT22;17702;47.590;7.666;2023-12-07T04:32:07;5.30;99.90
31038;DHT22;17702;47.590;7.666;2023-12-07T04:34:33;5.30;99.90
31038;DHT22;17702;47.590;7.666;2023-12-07T04:36:59;5.40;99.90
31038;DHT22;17702;47.590;7.666;2023-12-07T04:39:24;5.40;99.90
31038;DHT22;17702;47.590;7.666;2023-12-07T04:41:50;5.40;99.90
31038;DHT22;17702;47.590;7.666;2023-12-07T04:44:16;5.40;99.90
31038;DHT22;17702;47.590;7.666;2023-12-07T04:46:42;5.40;99.90
31038;DHT22;17702;47.590;7.666;2023-12-07T04:49:08;5.40;99.90
31038;DHT22;17702;47.590;7.666;2023-12-07T04:51:34;5.30;99.90
31038;DHT22;17702;47.590;7.666;2023-12-07T04:53:59;5.30;99.90
31038;DHT22;17702;47.590;7.666;2023-12-07T04:56:25;5.30;99.90
31038;DHT22;17702;47.590;7.666;2023-12-07T04:58:50;5.20;99.90
31038;DHT22;17702;47.590;7.666;2023-12-07T05:01:16;5.20;99.90
31038;DHT22;17702;47.590;7.666;2023-12-07T05:03:44;5.20;99.90
31038;DHT22;17702;47.590;7.666;2023-12-07T05:06:09;5.20;99.90
31038;DHT22;17702;47.590;7.666;2023-12-07T05:08:35;5.20;99.90
31038;DHT22;17702;47.590;7.666;2023-12-07T05:11:01;5.20;99.90
31038;DHT22;17702;47.590;7.666;2023-12-07T05:13:26;5.20;99.90
31038;DHT22;17702;47.590;7.666;2023-12-07T05:15:52;5.30;99.90
31038;DHT22;17702;47.590;7.666;2023-12-07T05:18:17;5.30;99.90
31038;DHT22;17702;47.590;7.666;2023-12-07T05:20:43;5.30;99.90
31038;DHT22;17702;47.590;7.666;2023-12-07T05:23:09;5.30;99.90
31038;DHT22;17702;47.590;7.666;2023-12-07T05:25:34;5.20;99.90
31038;DHT22;17702;47.590;7.666;2023-12-07T05:28:01;5.30;99.90
31038;DHT22;17702;47.590;7.666;2023-12-07T05:30:26;5.20;99.90
31038;DHT22;17702;47.590;7.666;2023-12-07T05:32:53;5.20;99.90
31038;DHT22;17702;47.590;7.666;2023-12-07T05:35:19;5.20;99.90
31038;DHT22;17702;47.590;7.666;2023-12-07T05:37:44;5.20;99.90
31038;DHT22;17702;47.590;7.666;2023-12-07T05:40:10;5.20;99.90
31038;DHT22;17702;47.590;7.666;2023-12-07T05:42:38;5.20;99.90
31038;DHT22;17702;47.590;7.666;2023-12-07T05:45:04;5.20;99.90
31038;DHT22;17702;47.590;7.666;2023-12-07T05:47:31;5.20;99.90
31038;DHT22;17702;47.590;7.666;2023-12-07T05:49:57;5.20;99.90
31038;DHT22;17702;47.590;7.666;2023-12-07T05:52:25;5.10;99.90
31038;DHT22;17702;47.590;7.666;2023-12-07T05:54:50;5.10;99.90
31038;DHT22;17702;47.590;7.666;2023-12-07T05:57:16;5.10;99.90
31038;DHT22;17702;47.590;7.666;2023-12-07T05:59:42;5.00;99.90
31038;DHT22;17702;47.590;7.666;2023-12-07T06:02:08;5.00;99.90
31038;DHT22;17702;47.590;7.666;2023-12-07T06:04:34;5.00;99.90
31038;DHT22;17702;47.590;7.666;2023-12-07T06:06:59;5.10;99.90
31038;DHT22;17702;47.590;7.666;2023-12-07T06:09:25;5.10;99.90
31038;DHT22;17702;47.590;7.666;2023-12-07T06:11:51;5.10;99.90
31038;DHT22;17702;47.590;7.666;2023-12-07T06:14:17;5.00;99.90
31038;DHT22;17702;47.590;7.666;2023-12-07T06:16:42;5.00;99.90
31038;DHT22;17702;47.590;7.666;2023-12-07T06:19:08;5.00;99.90
31038;DHT22;17702;47.590;7.666;2023-12-07T06:21:33;4.90;99.90
31038;DHT22;17702;47.590;7.666;2023-12-07T06:23:59;4.90;99.90
31038;DHT22;17702;47.590;7.666;2023-12-07T06:26:25;4.90;99.90
31038;DHT22;17702;47.590;7.666;2023-12-07T06:28:50;4.90;99.90
31038;DHT22;17702;47.590;7.666;2023-12-07T06:31:16;4.90;99.90
31038;DHT22;17702;47.590;7.666;2023-12-07T06:33:45;4.90;99.90
31038;DHT22;17702;47.590;7.666;2023-12-07T06:36:11;4.90;99.90
31038;DHT22;17702;47.590;7.666;2023-12-07T06:38:37;4.90;99.90
31038;DHT22;17702;47.590;7.666;2023-12-07T06:41:03;4.90;99.90
31038;DHT22;17702;47.590;7.666;2023-12-07T06:43:29;4.80;99.90
31038;DHT22;17702;47.590;7.666;2023-12-07T06:45:55;4.80;99.90
31038;DHT22;17702;47.590;7.666;2023-12-07T06:48:21;4.80;99.90
31038;DHT22;17702;47.590;7.666;2023-12-07T06:50:46;4.80;99.90
31038;DHT22;17702;47.590;7.666;2023-12-07T06:53:13;4.70;99.90
31038;DHT22;17702;47.590;7.666;2023-12-07T06:55:39;4.70;99.90
31038;DHT22;17702;47.590;7.666;2023-12-07T06:58:06;4.80;99.90
31038;DHT22;17702;47.590;7.666;2023-12-07T07:00:32;4.80;99.90
31038;DHT22;17702;47.590;7.666;2023-12-07T07:02:58;4.90;99.90
31038;DHT22;17702;47.590;7.666;2023-12-07T07:05:23;4.80;99.90
31038;DHT22;17702;47.590;7.666;2023-12-07T07:07:49;4.80;99.90
31038;DHT22;17702;47.590;7.666;2023-12-07T07:10:16;4.90;99.90
31038;DHT22;17702;47.590;7.666;2023-12-07T07:12:42;5.00;99.90
31038;DHT22;17702;47.590;7.666;2023-12-07T07:15:08;5.00;99.90
31038;DHT22;17702;47.590;7.666;2023-12-07T07:17:34;5.10;99.90
31038;DHT22;17702;47.590;7.666;2023-12-07T07:19:59;5.10;99.90
31038;DHT22;17702;47.590;7.666;2023-12-07T07:22:25;5.10;99.90
31038;DHT22;17702;47.590;7.666;2023-12-07T07:24:50;5.10;99.90
31038;DHT22;17702;47.590;7.666;2023-12-07T07:27:17;5.10;99.90
31038;DHT22;17702;47.590;7.666;2023-12-07T07:29:43;5.20;99.90
31038;DHT22;17702;47.590;7.666;2023-12-07T07:32:09;5.20;99.90
31038;DHT22;17702;47.590;7.666;2023-12-07T07:34:35;5.20;99.90
31038;DHT22;17702;47.590;7.666;2023-12-07T07:37:01;5.20;99.90
31038;DHT22;17702;47.590;7.666;2023-12-07T07:39:28;5.20;99.90
31038;DHT22;17702;47.590;7.666;2023-12-07T07:41:54;5.20;99.90
31038;DHT22;17702;47.590;7.666;2023-12-07T07:44:19;5.20;99.90
31038;DHT22;17702;47.590;7.666;2023-12-07T07:46:45;5.20;99.90
31038;DHT22;17702;47.590;7.666;2023-12-07T07:49:11;5.10;99.90
31038;DHT22;17702;47.590;7.666;2023-12-07T07:51:37;5.20;99.90
31038;DHT22;17702;47.590;7.666;2023-12-07T07:54:04;5.10;99.90
31038;DHT22;17702;47.590;7.666;2023-12-07T07:56:29;5.10;99.90
31038;DHT22;17702;47.590;7.666;2023-12-07T07:58:55;5.10;99.90
31038;DHT22;17702;47.590;7.666;2023-12-07T08:01:20;5.10;99.90
31038;DHT22;17702;47.590;7.666;2023-12-07T08:03:46;5.20;99.90
31038;DHT22;17702;47.590;7.666;2023-12-07T08:06:12;5.20;99.90
31038;DHT22;17702;47.590;7.666;2023-12-07T08:08:38;5.20;99.90
31038;DHT22;17702;47.590;7.666;2023-12-07T08:11:03;5.10;99.90
31038;DHT22;17702;47.590;7.666;2023-12-07T08:13:30;5.10;99.90
31038;DHT22;17702;47.590;7.666;2023-12-07T08:15:56;5.10;99.90
31038;DHT22;17702;47.590;7.666;2023-12-07T08:18:21;5.10;99.90
31038;DHT22;17702;47.590;7.666;2023-12-07T08:20:47;5.10;99.90
31038;DHT22;17702;47.590;7.666;2023-12-07T08:23:13;5.20;99.90
31038;DHT22;17702;47.590;7.666;2023-12-07T08:25:39;5.20;99.90
31038;DHT22;17702;47.590;7.666;2023-12-07T08:28:05;5.20;99.90
31038;DHT22;17702;47.590;7.666;2023-12-07T08:30:31;5.20;99.90
31038;DHT22;17702;47.590;7.666;2023-12-07T08:32:57;5.20;99.90
31038;DHT22;17702;47.590;7.666;2023-12-07T08:35:22;5.30;99.90
31038;DHT22;17702;47.590;7.666;2023-12-07T08:37:48;5.30;99.90
31038;DHT22;17702;47.590;7.666;2023-12-07T08:40:14;5.30;99.90
31038;DHT22;17702;47.590;7.666;2023-12-07T08:42:41;5.30;99.90
31038;DHT22;17702;47.590;7.666;2023-12-07T08:45:06;5.40;99.90
31038;DHT22;17702;47.590;7.666;2023-12-07T08:47:33;5.30;99.90
31038;DHT22;17702;47.590;7.666;2023-12-07T08:49:59;5.30;99.90
31038;DHT22;17702;47.590;7.666;2023-12-07T08:52:24;5.40;99.90
31038;DHT22;17702;47.590;7.666;2023-12-07T08:54:50;5.50;99.90
31038;DHT22;17702;47.590;7.666;2023-12-07T08:57:18;5.50;99.90
31038;DHT22;17702;47.590;7.666;2023-12-07T08:59:43;5.40;99.90
31038;DHT22;17702;47.590;7.666;2023-12-07T09:02:09;5.40;99.90
31038;DHT22;17702;47.590;7.666;2023-12-07T09:04:34;5.40;99.90
31038;DHT22;17702;47.590;7.666;2023-12-07T09:07:00;5.40;99.90
31038;DHT22;17702;47.590;7.666;2023-12-07T09:09:25;5.50;99.90
31038;DHT22;17702;47.590;7.666;2023-12-07T09:11:51;5.50;99.90
31038;DHT22;17702;47.590;7.666;2023-12-07T09:14:17;5.50;99.90
31038;DHT22;17702;47.590;7.666;2023-12-07T09:16:43;5.50;99.90
31038;DHT22;17702;47.590;7.666;2023-12-07T09:19:10;5.50;99.90
31038;DHT22;17702;47.590;7.666;2023-12-07T09:21:37;5.60;99.90
31038;DHT22;17702;47.590;7.666;2023-12-07T09:24:03;5.50;99.90
31038;DHT22;17702;47.590;7.666;2023-12-07T09:26:28;5.50;99.90
31038;DHT22;17702;47.590;7.666;2023-12-07T09:28:54;5.60;99.90
31038;DHT22;17702;47.590;7.666;2023-12-07T09:31:19;5.60;99.90
31038;DHT22;17702;47.590;7.666;2023-12-07T09:33:45;5.70;99.90
31038;DHT22;17702;47.590;7.666;2023-12-07T09:36:11;5.70;99.90
31038;DHT22;17702;47.590;7.666;2023-12-07T09:38:37;5.70;99.90
31038;DHT22;17702;47.590;7.666;2023-12-07T09:41:03;5.60;99.90
31038;DHT22;17702;47.590;7.666;2023-12-07T09:43:29;5.60;99.90
31038;DHT22;17702;47.590;7.666;2023-12-07T09:45:55;5.70;99.90
31038;DHT22;17702;47.590;7.666;2023-12-07T09:48:22;5.60;99.90
31038;DHT22;17702;47.590;7.666;2023-12-07T09:50:49;5.60;99.90
31038;DHT22;17702;47.590;7.666;2023-12-07T09:53:14;5.70;99.90
31038;DHT22;17702;47.590;7.666;2023-12-07T09:55:40;5.80;99.90
31038;DHT22;17702;47.590;7.666;2023-12-07T09:58:06;5.80;99.90
31038;DHT22;17702;47.590;7.666;2023-12-07T10:00:31;5.90;99.90
31038;DHT22;17702;47.590;7.666;2023-12-07T10:02:58;5.90;99.90
31038;DHT22;17702;47.590;7.666;2023-12-07T10:05:24;6.00;99.90
31038;DHT22;17702;47.590;7.666;2023-12-07T10:07:50;6.00;99.90
31038;DHT22;17702;47.590;7.666;2023-12-07T10:10:17;6.10;99.90
31038;DHT22;17702;47.590;7.666;2023-12-07T10:12:51;6.00;99.90
31038;DHT22;17702;47.590;7.666;2023-12-07T10:15:18;6.00;99.90
31038;DHT22;17702;47.590;7.666;2023-12-07T10:17:49;6.00;99.90
31038;DHT22;17702;47.590;7.666;2023-12-07T10:20:22;6.30;99.90
31038;DHT22;17702;47.590;7.666;2023-12-07T10:23:10;6.40;99.90
31038;DHT22;17702;47.590;7.666;2023-12-07T10:25:42;6.30;99.90
31038;DHT22;17702;47.590;7.666;2023-12-07T10:28:09;6.20;99.90
31038;DHT22;17702;47.590;7.666;2023-12-07T10:30:39;6.40;99.90
31038;DHT22;17702;47.590;7.666;2023-12-07T10:33:06;6.30;99.90
31038;DHT22;17702;47.590;7.666;2023-12-07T10:35:39;6.20;99.90
31038;DHT22;17702;47.590;7.666;2023-12-07T10:38:05;6.10;99.90
31038;DHT22;17702;47.590;7.666;2023-12-07T10:40:31;6.10;99.90
31038;DHT22;17702;47.590;7.666;2023-12-07T10:42:58;6.10;99.90
31038;DHT22;17702;47.590;7.666;2023-12-07T10:45:29;6.10;99.90
31038;DHT22;17702;47.590;7.666;2023-12-07T10:48:06;6.20;99.90
31038;DHT22;17702;47.590;7.666;2023-12-07T10:50:35;6.10;99.90
31038;DHT22;17702;47.590;7.666;2023-12-07T10:53:19;6.10;99.90
31038;DHT22;17702;47.590;7.666;2023-12-07T10:55:52;6.00;99.90
31038;DHT22;17702;47.590;7.666;2023-12-07T10:58:19;5.80;99.90
31038;DHT22;17702;47.590;7.666;2023-12-07T11:00:47;5.70;99.90
31038;DHT22;17702;47.590;7.666;2023-12-07T11:03:16;5.80;99.90
31038;DHT22;17702;47.590;7.666;2023-12-07T11:05:47;5.70;99.90
31038;DHT22;17702;47.590;7.666;2023-12-07T11:08:28;5.70;99.90
31038;DHT22;17702;47.590;7.666;2023-12-07T11:12:01;5.60;99.90
31038;DHT22;17702;47.590;7.666;2023-12-07T11:14:06;5.60;99.90
31038;DHT22;17702;47.590;7.666;2023-12-07T11:16:35;5.60;99.90
31038;DHT22;17702;47.590;7.666;2023-12-07T11:19:01;5.70;99.90
31038;DHT22;17702;47.590;7.666;2023-12-07T11:21:27;5.70;99.90
31038;DHT22;17702;47.590;7.666;2023-12-07T11:23:59;5.90;99.90
31038;DHT22;17702;47.590;7.666;2023-12-07T11:26:25;5.90;99.90
31038;DHT22;17702;47.590;7.666;2023-12-07T11:28:51;6.10;99.90
31038;DHT22;17702;47.590;7.666;2023-12-07T11:31:17;6.20;99.90
31038;DHT22;17702;47.590;7.666;2023-12-07T11:33:42;6.40;99.90
31038;DHT22;17702;47.590;7.666;2023-12-07T11:36:10;6.50;99.90
31038;DHT22;17702;47.590;7.666;2023-12-07T11:38:38;6.60;99.90
31038;DHT22;17702;47.590;7.666;2023-12-07T11:41:04;6.60;99.90
31038;DHT22;17702;47.590;7.666;2023-12-07T11:45:58;6.50;99.90
31038;DHT22;17702;47.590;7.666;2023-12-07T11:48:24;6.50;99.90
31038;DHT22;17702;47.590;7.666;2023-12-07T11:51:06;6.40;99.90
31038;DHT22;17702;47.590;7.666;2023-12-07T11:53:37;6.30;99.90
31038;DHT22;17702;47.590;7.666;2023-12-07T11:56:05;6.30;99.90
31038;DHT22;17702;47.590;7.666;2023-12-07T11:58:32;6.40;99.90
31038;DHT22;17702;47.590;7.666;2023-12-07T12:00:59;6.50;99.90
31038;DHT22;17702;47.590;7.666;2023-12-07T12:03:26;6.60;99.90
31038;DHT22;17702;47.590;7.666;2023-12-07T12:05:52;6.70;99.90
31038;DHT22;17702;47.590;7.666;2023-12-07T12:08:18;6.70;99.90
31038;DHT22;17702;47.590;7.666;2023-12-07T12:10:45;6.70;99.90
31038;DHT22;17702;47.590;7.666;2023-12-07T12:13:11;6.70;99.90
31038;DHT22;17702;47.590;7.666;2023-12-07T12:15:40;6.70;99.90
31038;DHT22;17702;47.590;7.666;2023-12-07T12:18:07;6.60;99.90
31038;DHT22;17702;47.590;7.666;2023-12-07T12:20:33;6.60;99.90
31038;DHT22;17702;47.590;7.666;2023-12-07T12:22:59;6.50;99.90
31038;DHT22;17702;47.590;7.666;2023-12-07T12:25:29;6.40;99.90
31038;DHT22;17702;47.590;7.666;2023-12-07T12:28:03;6.40;99.90
31038;DHT22;17702;47.590;7.666;2023-12-07T12:30:30;6.40;99.90
31038;DHT22;17702;47.590;7.666;2023-12-07T12:32:57;6.50;99.90
31038;DHT22;17702;47.590;7.666;2023-12-07T12:35:23;6.60;99.90
31038;DHT22;17702;47.590;7.666;2023-12-07T12:37:49;6.60;99.90
31038;DHT22;17702;47.590;7.666;2023-12-07T12:40:19;6.70;99.90
31038;DHT22;17702;47.590;7.666;2023-12-07T12:42:46;6.70;99.90
31038;DHT22;17702;47.590;7.666;2023-12-07T12:45:14;6.70;99.90
31038;DHT22;17702;47.590;7.666;2023-12-07T12:47:43;6.80;99.90
31038;DHT22;17702;47.590;7.666;2023-12-07T12:50:10;6.80;99.90
31038;DHT22;17702;47.590;7.666;2023-12-07T12:52:36;6.90;99.90
31038;DHT22;17702;47.590;7.666;2023-12-07T12:55:02;7.00;99.90
31038;DHT22;17702;47.590;7.666;2023-12-07T12:57:28;7.10;99.90
31038;DHT22;17702;47.590;7.666;2023-12-07T12:59:54;7.10;99.70
31038;DHT22;17702;47.590;7.666;2023-12-07T13:04:57;6.80;99.90
31038;DHT22;17702;47.590;7.666;2023-12-07T13:07:22;6.80;99.90
31038;DHT22;17702;47.590;7.666;2023-12-07T13:09:50;6.80;99.70
31038;DHT22;17702;47.590;7.666;2023-12-07T13:12:16;6.70;99.90
31038;DHT22;17702;47.590;7.666;2023-12-07T13:14:41;6.70;99.90
31038;DHT22;17702;47.590;7.666;2023-12-07T13:17:07;6.80;99.90
31038;DHT22;17702;47.590;7.666;2023-12-07T13:19:33;6.90;99.90
31038;DHT22;17702;47.590;7.666;2023-12-07T13:21:59;6.80;99.90
31038;DHT22;17702;47.590;7.666;2023-12-07T13:24:25;6.90;99.90
31038;DHT22;17702;47.590;7.666;2023-12-07T13:26:51;6.90;99.90
31038;DHT22;17702;47.590;7.666;2023-12-07T13:29:16;6.80;99.90
31038;DHT22;17702;47.590;7.666;2023-12-07T13:31:42;6.80;99.90
31038;DHT22;17702;47.590;7.666;2023-12-07T13:34:07;6.90;99.90
31038;DHT22;17702;47.590;7.666;2023-12-07T13:36:33;6.80;99.90
31038;DHT22;17702;47.590;7.666;2023-12-07T13:39:00;6.60;99.70
31038;DHT22;17702;47.590;7.666;2023-12-07T13:41:29;6.60;99.90
31038;DHT22;17702;47.590;7.666;2023-12-07T13:43:54;6.60;99.90
31038;DHT22;17702;47.590;7.666;2023-12-07T13:46:20;6.60;99.90
31038;DHT22;17702;47.590;7.666;2023-12-07T13:48:46;6.60;99.90
31038;DHT22;17702;47.590;7.666;2023-12-07T13:51:12;6.60;99.90
31038;DHT22;17702;47.590;7.666;2023-12-07T13:53:38;6.60;99.90
31038;DHT22;17702;47.590;7.666;2023-12-07T13:56:04;6.60;99.90
31038;DHT22;17702;47.590;7.666;2023-12-07T13:58:30;6.50;99.90
31038;DHT22;17702;47.590;7.666;2023-12-07T14:00:56;6.50;99.90
31038;DHT22;17702;47.590;7.666;2023-12-07T14:03:22;6.50;99.90
31038;DHT22;17702;47.590;7.666;2023-12-07T14:05:48;6.40;99.90
31038;DHT22;17702;47.590;7.666;2023-12-07T14:08:14;6.40;99.90
31038;DHT22;17702;47.590;7.666;2023-12-07T14:10:39;6.30;99.90
31038;DHT22;17702;47.590;7.666;2023-12-07T14:13:05;6.20;99.90
31038;DHT22;17702;47.590;7.666;2023-12-07T14:15:30;6.20;99.90
31038;DHT22;17702;47.590;7.666;2023-12-07T14:17:59;6.20;99.90
31038;DHT22;17702;47.590;7.666;2023-12-07T14:20:25;6.20;99.90
31038;DHT22;17702;47.590;7.666;2023-12-07T14:22:53;6.10;99.90
31038;DHT22;17702;47.590;7.666;2023-12-07T14:25:19;6.00;99.90
31038;DHT22;17702;47.590;7.666;2023-12-07T14:27:45;6.00;99.90
31038;DHT22;17702;47.590;7.666;2023-12-07T14:30:11;6.00;99.90
31038;DHT22;17702;47.590;7.666;2023-12-07T14:32:37;6.10;99.90
31038;DHT22;17702;47.590;7.666;2023-12-07T14:35:03;6.10;99.90
31038;DHT22;17702;47.590;7.666;2023-12-07T14:37:28;6.20;99.90
31038;DHT22;17702;47.590;7.666;2023-12-07T14:39:54;6.20;99.90
31038;DHT22;17702;47.590;7.666;2023-12-07T14:42:19;6.20;99.90
31038;DHT22;17702;47.590;7.666;2023-12-07T14:44:45;6.20;99.90
31038;DHT22;17702;47.590;7.666;2023-12-07T14:47:11;6.10;99.90
31038;DHT22;17702;47.590;7.666;2023-12-07T14:49:36;6.10;99.90
31038;DHT22;17702;47.590;7.666;2023-12-07T14:52:02;6.10;99.90
31038;DHT22;17702;47.590;7.666;2023-12-07T14:54:28;5.90;99.90
31038;DHT22;17702;47.590;7.666;2023-12-07T14:56:53;5.90;99.90
31038;DHT22;17702;47.590;7.666;2023-12-07T14:59:19;5.80;99.90
31038;DHT22;17702;47.590;7.666;2023-12-07T15:01:47;5.70;99.90
31038;DHT22;17702;47.590;7.666;2023-12-07T15:04:13;5.70;99.90
31038;DHT22;17702;47.590;7.666;2023-12-07T15:06:38;5.70;99.90
31038;DHT22;17702;47.590;7.666;2023-12-07T15:09:04;5.70;99.90
31038;DHT22;17702;47.590;7.666;2023-12-07T15:11:35;5.70;99.90
31038;DHT22;17702;47.590;7.666;2023-12-07T15:14:02;5.60;99.90
31038;DHT22;17702;47.590;7.666;2023-12-07T15:16:28;5.60;99.90
31038;DHT22;17702;47.590;7.666;2023-12-07T15:18:54;5.60;99.90
31038;DHT22;17702;47.590;7.666;2023-12-07T15:21:19;5.60;99.90
31038;DHT22;17702;47.590;7.666;2023-12-07T15:23:45;5.60;99.90
31038;DHT22;17702;47.590;7.666;2023-12-07T15:26:11;5.60;99.90
31038;DHT22;17702;47.590;7.666;2023-12-07T15:28:39;5.60;99.90
31038;DHT22;17702;47.590;7.666;2023-12-07T15:31:05;5.60;99.90
31038;DHT22;17702;47.590;7.666;2023-12-07T15:33:32;5.60;99.90
31038;DHT22;17702;47.590;7.666;2023-12-07T15:35:58;5.60;99.90
31038;DHT22;17702;47.590;7.666;2023-12-07T15:38:24;5.60;99.90
31038;DHT22;17702;47.590;7.666;2023-12-07T15:40:50;5.60;99.90
31038;DHT22;17702;47.590;7.666;2023-12-07T15:43:17;5.60;99.90
31038;DHT22;17702;47.590;7.666;2023-12-07T15:45:43;5.50;99.90
31038;DHT22;17702;47.590;7.666;2023-12-07T15:48:08;5.40;99.90
31038;DHT22;17702;47.590;7.666;2023-12-07T15:50:34;5.40;99.90